createdAt,value
2022-10-11T16:25:06.400Z,21.35
2022-10-11T16:27:34.371Z,17.00
2022-10-11T16:30:01.775Z,17.15
2022-10-11T16:32:28.821Z,21.98
2022-10-11T16:34:55.753Z,20.35
2022-10-11T16:37:22.706Z,24.55
2022-10-11T16:39:49.819Z,19.85
2022-10-11T16:42:16.928Z,25.13
2022-10-11T16:44:43.911Z,22.77
2022-10-11T16:47:11.106Z,27.40
2022-10-11T16:49:38.731Z,26.13
2022-10-11T16:52:05.887Z,25.73
2022-10-11T16:54:32.871Z,23.38
2022-10-11T16:57:00.406Z,24.13
2022-10-11T16:59:27.849Z,19.92
2022-10-11T17:01:55.482Z,23.77
2022-10-11T17:04:22.493Z,29.42
2022-10-11T17:06:49.543Z,33.85
2022-10-11T17:09:16.734Z,27.15
2022-10-11T17:11:44.141Z,28.63
2022-10-11T17:14:13.123Z,26.48
2022-10-11T17:16:40.119Z,28.60
2022-10-11T17:19:12.321Z,33.30
2022-10-11T17:21:41.153Z,34.80
2022-10-11T17:24:08.261Z,33.47
2022-10-11T17:26:35.368Z,44.20
2022-10-11T17:29:02.624Z,45.63
2022-10-11T17:31:30.792Z,57.90
2022-10-11T17:33:59.664Z,56.83
2022-10-11T17:36:32.166Z,53.33
2022-10-11T17:39:03.113Z,56.00
2022-10-11T17:41:32.205Z,56.08
2022-10-11T17:44:00.211Z,57.00
2022-10-11T17:46:28.378Z,54.10
2022-10-11T17:48:56.193Z,52.30
2022-10-11T17:51:23.219Z,57.33
2022-10-11T17:53:51.648Z,50.42
2022-10-11T17:56:29.488Z,45.17
2022-10-11T17:58:59.495Z,49.83
2022-10-11T18:01:29.770Z,46.83
2022-10-11T18:04:02.623Z,42.20
2022-10-11T18:06:33.403Z,45.08
2022-10-11T18:09:02.274Z,45.90
2022-10-11T18:11:30.357Z,40.08
2022-10-11T18:13:58.093Z,45.28
2022-10-11T18:16:27.741Z,41.80
2022-10-11T18:18:57.629Z,42.35
2022-10-11T18:21:33.636Z,48.35
2022-10-11T18:24:03.495Z,49.08
2022-10-11T18:26:31.230Z,47.33
2022-10-11T18:28:59.110Z,48.33
2022-10-11T18:31:29.732Z,47.58
2022-10-11T18:33:57.342Z,41.75
2022-10-11T18:36:27.097Z,42.90
2022-10-11T18:38:57.254Z,52.03
2022-10-11T18:41:31.160Z,44.55
2022-10-11T18:44:02.650Z,43.28
2022-10-11T18:46:31.509Z,48.17
2022-10-11T18:49:01.501Z,53.85
2022-10-11T18:51:31.376Z,63.97
2022-10-11T18:54:01.122Z,70.40
2022-10-11T18:56:30.246Z,64.15
2022-10-11T18:58:58.984Z,65.22
2022-10-11T19:01:29.226Z,58.08
2022-10-11T19:03:59.751Z,59.10
2022-10-11T19:06:30.535Z,60.72
2022-10-11T19:09:10.874Z,53.35
2022-10-11T19:11:39.211Z,53.42
2022-10-11T19:14:10.054Z,53.67
2022-10-11T19:16:40.616Z,46.05
2022-10-11T19:19:07.934Z,55.50
2022-10-11T19:21:35.744Z,51.05
2022-10-11T19:24:02.750Z,51.05
2022-10-11T19:26:35.460Z,48.13
2022-10-11T19:29:06.520Z,55.78
2022-10-11T19:31:35.856Z,59.40
2022-10-11T19:34:03.399Z,51.15
2022-10-11T19:36:35.479Z,58.13
2022-10-11T19:39:03.240Z,51.03
2022-10-11T19:41:30.220Z,54.83
2022-10-11T19:43:58.537Z,50.25
2022-10-11T19:46:49.780Z,56.28
2022-10-11T19:49:18.177Z,57.00
2022-10-11T19:51:45.572Z,55.15
2022-10-11T19:54:14.530Z,52.65
2022-10-11T19:56:42.764Z,49.45
2022-10-11T19:59:10.980Z,52.78
2022-10-11T20:01:38.183Z,49.50
2022-10-11T20:04:07.930Z,51.53
2022-10-11T20:06:38.611Z,54.22
2022-10-11T20:11:54.746Z,56.50
2022-10-11T20:14:21.826Z,55.63
2022-10-11T20:16:51.257Z,58.03
2022-10-11T20:19:19.006Z,53.50
2022-10-11T20:21:46.177Z,52.13
2022-10-11T20:24:13.439Z,51.70
2022-10-11T20:26:40.442Z,62.30
2022-10-11T20:29:07.441Z,55.53
2022-10-11T20:31:41.005Z,64.90
2022-10-11T20:34:08.201Z,62.63
2022-10-11T20:36:36.443Z,64.53
2022-10-11T20:39:05.067Z,57.63
2022-10-11T20:41:37.309Z,60.92
2022-10-11T20:44:05.004Z,61.03
2022-10-11T20:46:34.212Z,64.47
2022-10-11T20:49:06.673Z,63.50
2022-10-11T20:51:35.953Z,63.35
2022-10-11T20:54:05.027Z,59.85
2022-10-11T20:56:32.249Z,61.63
2022-10-11T20:59:00.258Z,57.25
2022-10-11T21:01:29.656Z,57.65
2022-10-11T21:04:01.137Z,60.28
2022-10-11T21:06:30.359Z,57.78
2022-10-11T21:08:59.332Z,57.28
2022-10-11T21:11:32.070Z,56.92
2022-10-11T21:14:01.253Z,55.58
2022-10-11T21:16:28.466Z,58.53
2022-10-11T21:18:57.830Z,53.03
2022-10-11T21:21:26.157Z,54.33
2022-10-11T21:23:58.031Z,55.13
2022-10-11T21:26:25.360Z,55.05
2022-10-11T21:28:52.701Z,54.95
2022-10-11T21:31:21.565Z,54.90
2022-10-11T21:33:48.952Z,54.55
2022-10-11T21:36:21.326Z,56.15
2022-10-11T21:38:49.911Z,54.80
2022-10-11T21:41:19.491Z,56.22
2022-10-11T21:43:47.563Z,54.05
2022-10-11T21:46:17.608Z,58.33
2022-10-11T21:48:44.884Z,61.58
2022-10-11T21:51:15.904Z,58.60
2022-10-11T21:53:42.957Z,58.35
2022-10-11T21:56:09.898Z,54.50
2022-10-11T21:58:36.825Z,55.75
2022-10-11T22:01:04.190Z,52.28
2022-10-11T22:03:31.172Z,57.67
2022-10-11T22:05:58.160Z,57.60
2022-10-11T22:08:25.043Z,47.33
2022-10-11T22:10:58.008Z,52.97
2022-10-11T22:13:26.373Z,47.78
2022-10-11T22:15:53.444Z,43.75
2022-10-11T22:18:20.646Z,43.67
2022-10-11T22:20:47.705Z,42.55
2022-10-11T22:23:14.888Z,46.03
2022-10-11T22:25:41.945Z,43.67
2022-10-11T22:28:09.045Z,40.25
2022-10-11T22:30:36.078Z,39.72
2022-10-11T22:33:03.097Z,43.33
2022-10-11T22:35:32.425Z,40.42
2022-10-11T22:38:01.849Z,39.03
2022-10-11T22:40:28.740Z,38.25
2022-10-11T22:42:55.734Z,38.15
2022-10-11T22:45:22.639Z,41.53
2022-10-11T22:47:49.531Z,40.58
2022-10-11T22:50:16.498Z,40.08
2022-10-11T22:52:43.382Z,36.47
2022-10-11T22:55:10.404Z,40.00
2022-10-11T22:57:37.859Z,35.30
2022-10-11T23:00:05.828Z,40.25
2022-10-11T23:02:32.791Z,39.97
2022-10-11T23:04:59.701Z,37.95
2022-10-11T23:07:26.629Z,39.08
2022-10-11T23:09:53.601Z,45.15
2022-10-11T23:12:23.073Z,35.67
2022-10-11T23:14:50.080Z,38.92
2022-10-11T23:17:17.139Z,34.83
2022-10-11T23:19:44.300Z,37.33
2022-10-11T23:22:11.181Z,37.25
2022-10-11T23:24:38.095Z,36.42
2022-10-11T23:27:05.255Z,34.17
2022-10-11T23:29:33.024Z,38.13
2022-10-11T23:31:59.882Z,38.97
2022-10-11T23:34:26.965Z,38.30
2022-10-11T23:36:53.852Z,38.20
2022-10-11T23:39:20.766Z,34.45
2022-10-11T23:41:47.759Z,34.63
2022-10-11T23:44:14.799Z,37.92
2022-10-11T23:46:42.009Z,34.03
2022-10-11T23:49:08.956Z,37.88
2022-10-11T23:51:35.995Z,35.50
2022-10-11T23:54:03.059Z,35.92
2022-10-11T23:56:29.970Z,33.97
2022-10-11T23:58:56.965Z,35.95
